KOSC/OSC METAR and TAF weather

Enter ICAO airport designator
Station Type Date Time Source
KOSC METAR 2019/10/23 20:20 UTC NOAA

KOSC 232020Z AUTO 24015G22KT 10SM BKN050 13/02 A2984 RMK AO2 T01340019


Station Type Date Time Source
KOSC Decoded METAR 2019/10/23 20:20 UTC NOAA

Oscoda, Oscoda-Wurtsmith Airport, MI, United States (KOSC) 44-27N 083-22W
Oct 23, 2019 - 04:20 PM EDT / 2019.10.23 2020 UTC
Wind: from the WSW (240 degrees) at 17 MPH (15 KT) gusting to 25 MPH (22 KT):0
Visibility: 10 mile(s):0
Sky conditions: mostly cloudy
Temperature: 56.1 F (13.4 C)
Dew Point: 35.4 F (1.9 C)
Relative Humidity: 45%
Pressure (altimeter): 29.84 in. Hg (1010 hPa)
ob: KOSC 232020Z AUTO 24015G22KT 10SM BKN050 13/02 A2984 RMK AO2 T01340019
cycle: 20

Station Type Date Time Source
KOSC TAF UTC NOAA

Error!

Example: see airport list